Time;durP1;ratioP1;P1;durP2;ratioP2;P2;SDS_P1;SDS_P2;PMS_P1;PMS_P2;Temp;Humidity;BMP_temperature;BMP_pressure;BME280_temperature;BME280_humidity;BME280_pressure;Samples;Min_cycle;Max_cycle;Signal;HPM_P1;HPM_P2
2022/05/27 00:02:06;;;;;;;2.55;1.58;;;;;;;14.91;100.00;99683.88;5052709;28;20084;-89
2022/05/27 00:04:51;;;;;;;1.70;0.93;;;;;;;14.90;100.00;99694.53;5052586;28;20036;-88
2022/05/27 00:07:35;;;;;;;3.78;1.05;;;;;;;14.80;100.00;99701.97;5053052;28;20052;-89
2022/05/27 00:10:19;;;;;;;1.05;0.90;;;;;;;14.79;100.00;99684.47;5053013;28;20052;-89
2022/05/27 00:13:04;;;;;;;0.95;0.88;;;;;;;14.75;100.00;99682.84;5025234;28;20052;-89
2022/05/27 00:15:49;;;;;;;1.85;0.95;;;;;;;14.71;100.00;99678.66;5053008;28;20403;-89
2022/05/27 00:18:33;;;;;;;3.28;1.00;;;;;;;14.78;100.00;99673.97;5031766;28;20119;-89
2022/05/27 00:21:17;;;;;;;2.97;1.30;;;;;;;14.72;100.00;99677.72;5044798;28;20033;-89
2022/05/27 00:24:02;;;;;;;2.20;0.90;;;;;;;14.70;100.00;99674.31;5052430;28;20059;-89
2022/05/27 00:26:47;;;;;;;3.13;1.83;;;;;;;14.61;100.00;99659.75;5038298;28;20060;-89
2022/05/27 00:29:31;;;;;;;2.40;1.52;;;;;;;14.58;100.00;99664.31;5050969;28;20065;-89
2022/05/27 00:32:16;;;;;;;3.60;2.00;;;;;;;14.46;100.00;99652.47;5051584;28;20037;-89
2022/05/27 00:35:00;;;;;;;3.88;2.30;;;;;;;14.49;100.00;99660.25;5037780;28;20170;-89
2022/05/27 00:37:44;;;;;;;3.00;2.08;;;;;;;14.51;100.00;99668.97;5053610;28;20040;-89
2022/05/27 00:40:41;;;;;;;2.45;1.50;;;;;;;14.48;100.00;99662.03;5023441;28;20040;-89
2022/05/27 00:43:26;;;;;;;2.78;1.52;;;;;;;14.51;100.00;99660.22;5052296;28;20041;-89
2022/05/27 00:46:18;;;;;;;3.97;1.30;;;;;;;14.46;100.00;99670.91;5023878;28;20415;-88
2022/05/27 00:49:25;;;;;;;2.78;1.60;;;;;;;14.39;100.00;99659.78;5052185;28;20032;-87
2022/05/27 00:52:12;;;;;;;2.78;1.40;;;;;;;14.26;100.00;99645.44;5037768;28;20041;-89
2022/05/27 00:55:00;;;;;;;2.40;1.40;;;;;;;14.24;100.00;99644.66;5047195;28;21498;-88
2022/05/27 00:57:51;;;;;;;1.65;1.10;;;;;;;14.25;100.00;99644.56;5025314;28;20537;-89
2022/05/27 01:00:36;;;;;;;2.25;1.30;;;;;;;14.07;100.00;99624.31;5051634;28;20403;-89
2022/05/27 01:03:22;;;;;;;1.85;1.30;;;;;;;14.21;100.00;99644.78;5051484;28;20082;-90
2022/05/27 01:06:06;;;;;;;2.22;1.17;;;;;;;14.09;100.00;99627.72;5051616;28;20056;-89
2022/05/27 01:08:52;;;;;;;1.92;1.35;;;;;;;14.15;100.00;99639.78;5047228;28;20041;-89
2022/05/27 01:11:55;;;;;;;3.72;1.50;;;;;;;14.06;100.00;99638.38;5036426;28;20041;-88
2022/05/27 01:15:04;;;;;;;2.00;1.30;;;;;;;14.05;100.00;99635.81;5051653;28;20048;-89
2022/05/27 01:18:14;;;;;;;3.78;1.63;;;;;;;13.93;100.00;99631.91;5050572;28;20052;-89
2022/05/27 01:21:14;;;;;;;3.08;1.75;;;;;;;13.91;100.00;99610.03;5022708;28;20041;-88
2022/05/27 01:24:07;;;;;;;1.52;1.30;;;;;;;14.01;100.00;99627.19;5026509;28;20045;-89
2022/05/27 01:27:15;;;;;;;3.90;1.50;;;;;;;13.79;100.00;99603.53;5051072;28;20124;-88
2022/05/27 01:30:20;;;;;;;2.20;2.00;;;;;;;13.98;100.00;99616.78;5050147;28;20041;-89
2022/05/27 01:33:30;;;;;;;3.15;1.52;;;;;;;13.93;100.00;99608.22;5050087;28;20040;-89
2022/05/27 01:36:24;;;;;;;2.70;1.80;;;;;;;13.95;100.00;99615.13;5036793;28;20041;-89
2022/05/27 01:39:44;;;;;;;1.80;1.40;;;;;;;13.91;100.00;99602.16;5025540;28;20053;-89
2022/05/27 01:43:04;;;;;;;2.95;1.65;;;;;;;13.91;100.00;99599.50;5044670;28;20040;-88
2022/05/27 01:45:52;;;;;;;2.28;1.88;;;;;;;13.80;100.00;99584.19;5038500;28;20634;-88
2022/05/27 01:48:46;;;;;;;4.50;1.98;;;;;;;13.82;100.00;99592.88;5036347;28;20091;-89
2022/05/27 01:51:40;;;;;;;3.63;1.60;;;;;;;13.91;100.00;99591.63;5049566;28;20037;-89
2022/05/27 01:54:39;;;;;;;3.47;1.75;;;;;;;13.95;100.00;99587.97;5050650;28;20041;-89
2022/05/27 01:57:29;;;;;;;1.60;1.10;;;;;;;13.94;100.00;99584.47;5030532;28;20426;-88
2022/05/27 02:00:21;;;;;;;1.80;1.35;;;;;;;13.95;100.00;99588.81;5028547;28;20063;-89
2022/05/27 02:03:36;;;;;;;3.20;1.48;;;;;;;13.97;100.00;99578.19;5050206;28;20036;-89
2022/05/27 02:06:27;;;;;;;4.18;1.50;;;;;;;13.95;100.00;99573.00;5035618;28;20091;-89
2022/05/27 02:09:27;;;;;;;1.92;1.23;;;;;;;13.97;100.00;99573.81;5043737;28;20041;-88
2022/05/27 02:12:36;;;;;;;2.45;1.10;;;;;;;13.92;100.00;99551.22;5050566;28;20044;-90
2022/05/27 02:15:28;;;;;;;1.40;1.00;;;;;;;13.94;100.00;99563.41;5049291;28;20045;-89
2022/05/27 02:18:34;;;;;;;4.20;1.17;;;;;;;13.93;100.00;99559.03;5041932;28;20469;-89
2022/05/27 02:21:40;;;;;;;1.75;1.20;;;;;;;13.93;100.00;99566.94;5036312;28;20391;-88
2022/05/27 02:24:42;;;;;;;2.70;1.65;;;;;;;13.89;100.00;99554.84;5049585;28;20033;-89
2022/05/27 02:27:33;;;;;;;3.10;1.30;;;;;;;13.83;100.00;99535.81;5050305;28;20472;-89
2022/05/27 02:30:22;;;;;;;2.92;1.40;;;;;;;13.90;100.00;99539.91;5036111;28;20048;-89
2022/05/27 02:36:25;;;;;;;3.83;1.17;;;;;;;13.86;100.00;99526.00;5049116;28;20396;-89
2022/05/27 02:39:10;;;;;;;4.90;1.40;;;;;;;13.86;100.00;99528.66;5036583;28;20045;-89
2022/05/27 02:42:19;;;;;;;2.20;1.10;;;;;;;13.95;100.00;99540.56;5048992;28;20044;-89
2022/05/27 02:45:20;;;;;;;2.33;1.23;;;;;;;13.96;100.00;99522.06;5049531;28;20052;-89
2022/05/27 02:48:10;;;;;;;2.30;1.52;;;;;;;14.01;100.00;99535.03;5021440;28;20041;-89
2022/05/27 02:51:22;;;;;;;1.85;1.05;;;;;;;13.98;100.00;99520.22;5035786;28;20044;-89
2022/05/27 02:54:38;;;;;;;2.80;1.77;;;;;;;14.08;100.00;99525.94;5036300;28;20106;-88
2022/05/27 02:57:34;;;;;;;2.97;1.50;;;;;;;13.99;100.00;99510.53;5035564;28;20167;-89
2022/05/27 03:00:21;;;;;;;1.80;1.13;;;;;;;14.13;100.00;99507.28;5048477;28;20091;-89
2022/05/27 03:03:05;;;;;;;2.85;1.20;;;;;;;14.05;100.00;99507.66;5049539;28;20033;-88
2022/05/27 03:06:27;;;;;;;2.47;1.60;;;;;;;13.99;100.00;99492.13;5049027;28;20549;-89
2022/05/27 03:09:42;;;;;;;2.20;1.15;;;;;;;14.12;100.00;99508.22;5025884;28;20048;-89
2022/05/27 03:13:04;;;;;;;1.52;0.88;;;;;;;14.14;100.00;99496.72;5043347;28;20479;-89
2022/05/27 03:16:01;;;;;;;2.63;1.52;;;;;;;14.05;100.00;99502.38;5049345;28;20455;-88
2022/05/27 03:19:19;;;;;;;2.88;1.48;;;;;;;13.97;100.00;99476.41;5035850;28;20813;-89
2022/05/27 03:22:46;;;;;;;5.13;1.20;;;;;;;14.00;100.00;99486.75;5023488;28;20052;-88
2022/05/27 03:25:39;;;;;;;5.65;1.30;;;;;;;14.07;100.00;99483.88;5016579;28;20410;-89
2022/05/27 03:28:35;;;;;;;3.00;1.40;;;;;;;14.04;100.00;99479.63;5054024;28;20048;-89
2022/05/27 03:31:23;;;;;;;5.43;1.38;;;;;;;14.17;100.00;99486.03;5053336;28;21734;-89
2022/05/27 03:34:36;;;;;;;1.83;1.13;;;;;;;14.12;100.00;99481.91;5031750;28;20037;-89
2022/05/27 03:37:36;;;;;;;1.83;1.08;;;;;;;14.14;100.00;99470.38;5026584;28;20134;-88
2022/05/27 03:40:30;;;;;;;4.30;1.05;;;;;;;14.19;100.00;99475.41;5053921;28;20037;-89
2022/05/27 03:43:16;;;;;;;3.72;0.88;;;;;;;14.13;100.00;99459.88;5043102;28;20052;-88
2022/05/27 03:46:02;;;;;;;3.75;1.05;;;;;;;14.24;100.00;99465.53;5044503;28;20048;-89
2022/05/27 03:48:47;;;;;;;1.92;0.70;;;;;;;14.17;100.00;99459.69;5039923;28;20040;-89
2022/05/27 03:51:56;;;;;;;1.65;0.60;;;;;;;14.25;100.00;99454.94;5039928;28;20091;-88
2022/05/27 03:54:40;;;;;;;2.22;0.77;;;;;;;14.21;100.00;99445.47;5039737;28;20045;-89
2022/05/27 03:57:25;;;;;;;3.08;0.93;;;;;;;14.22;100.00;99451.56;5046571;28;20116;-89
2022/05/27 04:00:12;;;;;;;2.33;1.00;;;;;;;14.22;100.00;99441.91;5039978;28;20045;-89
2022/05/27 04:02:56;;;;;;;2.05;1.02;;;;;;;14.26;100.00;99466.31;5039564;28;20044;-89
2022/05/27 04:05:41;;;;;;;1.58;0.60;;;;;;;14.21;100.00;99445.47;5053851;28;20510;-89
2022/05/27 04:08:25;;;;;;;3.58;0.80;;;;;;;14.34;100.00;99464.19;5044224;28;20041;-89
2022/05/27 04:11:10;;;;;;;1.00;0.50;;;;;;;14.30;100.00;99446.84;5053652;28;20049;-88
2022/05/27 04:13:55;;;;;;;4.03;0.60;;;;;;;14.45;100.00;99468.97;5053866;28;20045;-90
2022/05/27 04:16:39;;;;;;;3.42;0.88;;;;;;;14.49;100.00;99457.34;5033770;28;21034;-89
2022/05/27 04:19:24;;;;;;;1.25;0.50;;;;;;;14.42;100.00;99443.59;5053240;28;20107;-89
2022/05/27 04:22:08;;;;;;;3.58;0.60;;;;;;;14.47;100.00;99438.13;5052617;28;20061;-89
2022/05/27 04:24:53;;;;;;;3.00;0.47;;;;;;;14.55;100.00;99461.50;5053297;28;20498;-89
2022/05/27 04:27:38;;;;;;;5.50;0.40;;;;;;;14.47;100.00;99444.25;5052460;28;20040;-89
2022/05/27 04:30:24;;;;;;;1.95;0.45;;;;;;;14.59;100.00;99449.91;5052499;28;20552;-89
2022/05/27 04:33:09;;;;;;;1.02;0.40;;;;;;;14.61;100.00;99448.91;5052382;28;20033;-89
2022/05/27 04:35:54;;;;;;;1.25;0.40;;;;;;;14.54;100.00;99426.41;5024646;28;20129;-90
2022/05/27 04:38:39;;;;;;;1.80;0.68;;;;;;;14.65;100.00;99436.44;5052544;28;20037;-93
2022/05/27 04:41:25;;;;;;;2.67;0.90;;;;;;;14.68;100.00;99431.00;5052325;28;20128;-90
2022/05/27 04:44:09;;;;;;;0.73;0.40;;;;;;;14.69;100.00;99430.13;5051988;28;20045;-88
2022/05/27 04:46:54;;;;;;;1.30;0.50;;;;;;;14.59;100.00;99423.53;5050965;28;20611;-89
2022/05/27 04:49:56;;;;;;;3.28;0.50;;;;;;;14.73;100.00;99450.13;5051336;28;20044;-88
2022/05/27 04:52:41;;;;;;;2.75;1.08;;;;;;;14.70;100.00;99443.19;5033117;28;20072;-89
2022/05/27 04:55:26;;;;;;;1.40;0.50;;;;;;;14.65;100.00;99425.88;5051898;28;20411;-88
2022/05/27 04:58:11;;;;;;;2.47;0.90;;;;;;;14.69;100.00;99411.66;5036822;28;20060;-89
2022/05/27 05:00:59;;;;;;;2.20;0.63;;;;;;;14.81;100.00;99418.94;5035169;28;20411;-88
2022/05/27 05:03:43;;;;;;;2.35;0.40;;;;;;;14.90;100.00;99417.66;5051466;28;20059;-89
2022/05/27 05:06:28;;;;;;;2.80;0.90;;;;;;;15.05;100.00;99424.81;5051878;28;20442;-88
2022/05/27 05:09:12;;;;;;;3.22;0.60;;;;;;;15.01;100.00;99415.34;5051231;28;20041;-89
2022/05/27 05:11:57;;;;;;;2.00;0.77;;;;;;;15.00;100.00;99403.09;5040846;28;20545;-89
2022/05/27 05:14:41;;;;;;;2.88;0.60;;;;;;;15.06;100.00;99417.75;5024072;28;20095;-89
2022/05/27 05:17:26;;;;;;;1.73;0.40;;;;;;;15.20;100.00;99410.00;5050910;28;20048;-89
2022/05/27 05:20:13;;;;;;;0.95;0.57;;;;;;;15.22;100.00;99420.50;5051540;28;20452;-88
2022/05/27 05:22:58;;;;;;;2.35;0.30;;;;;;;15.06;100.00;99405.44;5036463;28;20091;-88
2022/05/27 05:25:42;;;;;;;0.80;0.60;;;;;;;15.08;100.00;99408.84;5036755;28;20029;-89
2022/05/27 05:28:27;;;;;;;3.72;0.73;;;;;;;15.10;100.00;99416.69;5051099;28;20087;-89
2022/05/27 05:31:16;;;;;;;2.88;0.52;;;;;;;15.14;100.00;99405.03;5041335;28;20049;-89
2022/05/27 05:34:01;;;;;;;2.88;0.60;;;;;;;15.27;100.00;99400.00;5029282;28;20147;-89
2022/05/27 05:36:46;;;;;;;2.20;0.70;;;;;;;15.28;100.00;99410.50;5051195;28;20063;-89
2022/05/27 05:39:31;;;;;;;2.55;1.13;;;;;;;15.50;100.00;99409.38;5036960;28;20041;-89
2022/05/27 05:42:15;;;;;;;2.17;0.70;;;;;;;15.36;100.00;99407.44;5042048;28;20064;-89
2022/05/27 05:45:00;;;;;;;5.90;0.95;;;;;;;15.52;100.00;99410.16;5044978;28;20044;-89
2022/05/27 05:47:44;;;;;;;2.90;0.90;;;;;;;15.43;100.00;99403.56;5044440;28;20089;-89
2022/05/27 05:50:30;;;;;;;3.72;0.57;;;;;;;15.61;100.00;99421.09;5051074;28;20549;-89
2022/05/27 05:53:14;;;;;;;1.88;0.88;;;;;;;15.66;100.00;99407.63;5035855;28;20438;-90
2022/05/27 05:56:00;;;;;;;1.52;0.65;;;;;;;15.86;100.00;99390.81;5036828;28;20041;-89
2022/05/27 05:58:44;;;;;;;5.32;1.30;;;;;;;16.06;100.00;99405.59;5047030;28;21458;-89
2022/05/27 06:01:29;;;;;;;5.03;1.48;;;;;;;15.95;100.00;99392.09;5035342;28;20051;-89
2022/05/27 06:04:13;;;;;;;1.83;1.30;;;;;;;15.89;100.00;99388.84;5052061;28;20120;-90
2022/05/27 06:06:58;;;;;;;3.85;2.05;;;;;;;15.91;100.00;99401.13;5023515;28;20091;-90
2022/05/27 06:09:42;;;;;;;4.72;1.20;;;;;;;15.95;100.00;99392.09;5039691;28;20166;-89
2022/05/27 06:12:28;;;;;;;2.25;0.88;;;;;;;15.93;100.00;99386.91;5051289;28;20088;-89
2022/05/27 06:15:14;;;;;;;2.97;1.15;;;;;;;16.00;100.00;99393.56;5051011;28;20118;-89
2022/05/27 06:17:59;;;;;;;2.15;0.57;;;;;;;16.30;100.00;99390.16;5036808;28;20048;-89
2022/05/27 06:20:45;;;;;;;3.42;0.90;;;;;;;15.94;100.00;99379.81;5033219;28;20400;-89
2022/05/27 06:23:30;;;;;;;1.65;0.73;;;;;;;16.16;100.00;99374.25;5033648;28;20169;-90
2022/05/27 06:26:14;;;;;;;5.05;0.90;;;;;;;16.03;100.00;99381.97;5036285;28;20047;-89
2022/05/27 06:35:06;;;;;;;2.85;1.23;;;;;;;16.07;100.00;99399.34;5038497;28;20041;-89
2022/05/27 06:37:51;;;;;;;2.33;0.80;;;;;;;16.07;100.00;99394.91;5035787;28;20483;-89
2022/05/27 06:40:36;;;;;;;2.13;0.55;;;;;;;16.02;100.00;99390.81;5036817;28;20049;-89
2022/05/27 06:43:20;;;;;;;2.38;0.65;;;;;;;15.84;100.00;99374.19;5021696;28;20074;-89
2022/05/27 06:46:05;;;;;;;1.42;0.63;;;;;;;15.69;100.00;99383.75;5035010;28;20044;-89
2022/05/27 06:48:49;;;;;;;4.97;1.27;;;;;;;15.75;100.00;99394.00;5052186;28;20041;-88
2022/05/27 06:51:35;;;;;;;1.35;0.60;;;;;;;15.61;100.00;99388.56;5023337;28;20037;-89
2022/05/27 06:54:20;;;;;;;1.15;0.80;;;;;;;15.57;100.00;99392.31;5048524;28;20045;-91
2022/05/27 06:57:06;;;;;;;3.70;1.00;;;;;;;15.49;100.00;99382.13;5056220;28;20087;-91
2022/05/27 06:59:51;;;;;;;2.50;0.90;;;;;;;15.53;100.00;99372.25;5046755;28;20060;-89
2022/05/27 07:02:35;;;;;;;3.95;1.20;;;;;;;15.62;100.00;99383.19;5047700;28;20033;-90
2022/05/27 07:05:20;;;;;;;5.03;1.13;;;;;;;15.49;100.00;99394.47;5055445;28;20036;-90
2022/05/27 07:08:06;;;;;;;2.67;1.30;;;;;;;15.26;100.00;99393.88;5041397;28;20381;-89
2022/05/27 07:10:51;;;;;;;2.95;1.15;;;;;;;15.11;100.00;99402.53;5027610;28;20385;-89
2022/05/27 07:13:35;;;;;;;4.53;1.17;;;;;;;14.90;100.00;99386.03;5054784;28;20037;-90
2022/05/27 07:16:20;;;;;;;3.63;1.65;;;;;;;15.01;100.00;99399.50;5054953;28;20044;-89
2022/05/27 07:19:05;;;;;;;2.20;1.15;;;;;;;14.68;100.00;99400.25;5046100;28;20041;-89
2022/05/27 07:21:50;;;;;;;5.32;1.35;;;;;;;14.72;100.00;99401.81;5055252;28;20472;-89
2022/05/27 07:24:34;;;;;;;7.63;1.42;;;;;;;14.55;100.00;99396.50;5044165;28;20047;-90
2022/05/27 07:27:19;;;;;;;3.83;1.00;;;;;;;14.52;100.00;99406.31;5040849;28;20059;-89
2022/05/27 07:30:08;;;;;;;3.10;1.27;;;;;;;14.53;100.00;99418.56;5026998;28;20033;-89
2022/05/27 07:32:52;;;;;;;3.22;1.42;;;;;;;14.41;100.00;99410.28;5037702;28;20110;-91
2022/05/27 07:35:37;;;;;;;3.78;1.52;;;;;;;14.19;100.00;99402.53;5048149;28;20044;-90
2022/05/27 07:38:22;;;;;;;1.65;0.98;;;;;;;14.12;100.00;99423.97;5026908;28;20055;-90
2022/05/27 07:41:07;;;;;;;2.90;1.17;;;;;;;13.83;100.00;99406.84;5031605;28;20048;-90
2022/05/27 07:43:52;;;;;;;1.88;1.05;;;;;;;13.89;100.00;99409.19;5049908;28;20056;-91
2022/05/27 07:46:37;;;;;;;1.83;1.13;;;;;;;13.70;100.00;99414.41;5026899;28;20110;-92
2022/05/27 07:49:22;;;;;;;3.03;1.20;;;;;;;13.72;100.00;99433.66;5035471;28;20049;-92
2022/05/27 07:52:07;;;;;;;2.88;1.40;;;;;;;13.69;100.00;99433.78;5037918;28;20049;-92
2022/05/27 07:54:54;;;;;;;3.53;1.27;;;;;;;13.51;100.00;99427.53;5045867;28;20479;-91
2022/05/27 07:57:43;;;;;;;1.17;0.90;;;;;;;13.26;100.00;99428.56;5041190;28;20079;-93
2022/05/27 08:00:31;;;;;;;2.33;0.60;;;;;;;13.01;100.00;99456.75;5049335;28;20033;-89
2022/05/27 08:03:18;;;;;;;1.10;0.52;;;;;;;12.91;100.00;99440.50;5049626;28;20067;-94
2022/05/27 08:06:02;;;;;;;1.33;0.50;;;;;;;12.66;100.00;99447.66;5054103;28;20041;-89
2022/05/27 08:08:47;;;;;;;2.08;0.77;;;;;;;12.36;100.00;99438.28;5048949;28;20041;-93
2022/05/27 08:11:32;;;;;;;2.67;0.68;;;;;;;12.37;100.00;99463.59;5046743;28;20037;-93
2022/05/27 08:14:16;;;;;;;1.73;0.50;;;;;;;12.49;100.00;99464.94;5052218;28;20388;-93
2022/05/27 08:17:01;;;;;;;3.83;1.08;;;;;;;12.66;100.00;99482.66;5048864;28;20099;-93
2022/05/27 08:19:45;;;;;;;3.88;0.50;;;;;;;12.27;100.00;99458.78;5039125;28;20095;-91
2022/05/27 08:22:29;;;;;;;1.92;0.22;;;;;;;12.37;100.00;99453.09;5039842;28;20517;-92
2022/05/27 08:25:15;;;;;;;0.75;0.50;;;;;;;12.65;100.00;99467.81;5027063;28;20045;-93
2022/05/27 08:28:00;;;;;;;2.17;0.82;;;;;;;12.54;100.00;99452.44;5026682;28;20033;-92
2022/05/27 08:30:44;;;;;;;1.20;0.63;;;;;;;12.72;100.00;99447.41;5054193;28;20029;-92
2022/05/27 08:39:35;;;;;;;1.20;0.50;;;;;;;12.70;100.00;99422.97;5054184;28;20043;-92
2022/05/27 08:42:28;;;;;;;2.17;0.70;;;;;;;12.70;100.00;99442.19;5053203;28;20044;-92
2022/05/27 08:45:26;;;;;;;3.30;0.60;;;;;;;12.64;100.00;99450.31;5039417;28;20380;-92
2022/05/27 08:48:12;;;;;;;1.50;0.88;;;;;;;12.68;100.00;99440.56;5025237;28;20044;-93
2022/05/27 08:51:04;;;;;;;1.33;0.38;;;;;;;12.90;100.00;99443.19;5030112;28;20036;-92
2022/05/27 08:53:58;;;;;;;3.40;0.95;;;;;;;12.78;100.00;99434.03;5051811;28;20037;-92
2022/05/27 08:59:53;;;;;;;1.58;0.68;;;;;;;13.31;100.00;99441.53;5053864;28;20045;-92
2022/05/27 09:03:01;;;;;;;2.50;1.00;;;;;;;13.32;100.00;99427.44;5028798;28;20456;-93
2022/05/27 09:06:04;;;;;;;2.38;0.77;;;;;;;13.41;100.00;99445.47;5033536;28;20033;-93
2022/05/27 09:08:48;;;;;;;2.15;0.80;;;;;;;13.20;100.00;99434.06;5027057;28;20083;-92
2022/05/27 09:12:00;;;;;;;2.53;1.13;;;;;;;13.35;100.00;99458.03;5042657;28;20519;-92
2022/05/27 09:15:13;;;;;;;3.17;0.65;;;;;;;13.34;100.00;99446.66;5051936;28;20120;-93
2022/05/27 09:18:22;;;;;;;1.80;0.85;;;;;;;13.49;100.00;99453.91;5051353;28;20384;-92
2022/05/27 09:21:21;;;;;;;2.55;0.80;;;;;;;13.27;100.00;99469.72;5037934;28;20059;-94
2022/05/27 09:24:06;;;;;;;3.35;1.27;;;;;;;13.19;100.00;99458.63;5029463;28;20037;-93
2022/05/27 09:27:01;;;;;;;1.58;0.90;;;;;;;13.26;100.00;99447.00;5053912;28;20044;-93
2022/05/27 09:30:08;;;;;;;1.00;0.70;;;;;;;13.22;100.00;99450.59;5052346;28;20056;-92
2022/05/27 09:33:00;;;;;;;2.25;0.73;;;;;;;13.54;100.00;99449.28;5039411;28;20040;-92
2022/05/27 09:36:15;;;;;;;2.25;0.65;;;;;;;13.79;100.00;99459.63;5025985;28;20041;-93
2022/05/27 09:39:03;;;;;;;1.95;1.23;;;;;;;13.64;100.00;99464.69;5024756;28;20125;-92
2022/05/27 09:42:06;;;;;;;1.85;0.85;;;;;;;13.62;100.00;99467.41;5047888;28;20033;-92
2022/05/27 09:44:52;;;;;;;;;;;;;;;14.05;100.00;99446.22;5038193;28;20061;-92
2022/05/27 09:47:38;;;;;;;2.85;1.27;;;;;;;13.56;100.00;99444.81;5039023;28;20607;-92
2022/05/27 09:50:28;;;;;;;2.25;0.50;;;;;;;13.98;100.00;99451.78;5052916;28;20051;-92
2022/05/27 09:53:49;;;;;;;2.33;0.80;;;;;;;13.92;100.00;99464.34;5037649;28;20415;-92
2022/05/27 09:56:43;;;;;;;3.30;1.10;;;;;;;13.83;100.00;99459.47;5024345;28;20403;-91
2022/05/27 09:59:38;;;;;;;2.08;0.95;;;;;;;13.80;100.00;99449.94;5042751;28;20037;-93
2022/05/27 10:02:25;;;;;;;2.03;0.50;;;;;;;14.03;100.00;99468.19;5053252;28;20119;-94
2022/05/27 10:05:23;;;;;;;1.77;0.70;;;;;;;14.05;100.00;99467.28;5027148;28;20056;-91
2022/05/27 10:08:07;;;;;;;1.35;1.02;;;;;;;13.77;100.00;99468.50;5030932;28;20037;-93
2022/05/27 10:11:06;;;;;;;2.45;1.30;;;;;;;13.59;100.00;99472.78;5040244;28;20107;-92
2022/05/27 10:14:24;;;;;;;1.95;0.75;;;;;;;13.45;100.00;99472.50;5051812;28;20033;-93
2022/05/27 10:17:10;;;;;;;1.85;1.00;;;;;;;13.57;100.00;99469.34;5038370;28;20049;-92
2022/05/27 10:20:15;;;;;;;2.35;1.40;;;;;;;13.43;100.00;99458.56;5024339;28;20061;-92
2022/05/27 10:23:03;;;;;;;2.30;0.98;;;;;;;13.24;100.00;99451.44;5029628;28;20044;-92
2022/05/27 10:25:49;;;;;;;2.50;0.88;;;;;;;13.28;100.00;99458.28;5029755;28;20458;-94
2022/05/27 10:28:33;;;;;;;3.88;1.40;;;;;;;13.36;100.00;99454.47;5030745;28;20033;-93
2022/05/27 10:31:18;;;;;;;2.50;1.25;;;;;;;13.53;100.00;99452.00;5052754;28;20135;-93
2022/05/27 10:34:03;;;;;;;1.83;1.23;;;;;;;13.30;100.00;99443.31;5046355;28;20041;-94
2022/05/27 10:37:05;;;;;;;4.00;1.90;;;;;;;13.35;100.00;99482.53;5039663;28;20111;-93
2022/05/27 10:40:16;;;;;;;3.13;1.50;;;;;;;13.14;100.00;99450.09;5045359;28;20040;-94
2022/05/27 10:43:13;;;;;;;2.30;1.42;;;;;;;12.90;100.00;99449.28;5029200;28;20045;-94
2022/05/27 10:46:03;;;;;;;2.80;1.70;;;;;;;12.77;100.00;99469.09;5053611;28;20033;-96
2022/05/27 10:49:09;;;;;;;2.85;1.17;;;;;;;12.55;100.00;99463.84;5046514;28;20407;-95
2022/05/27 10:52:03;;;;;;;1.50;0.80;;;;;;;12.49;100.00;99456.19;5026734;28;20029;-96
2022/05/27 10:55:11;;;;;;;2.17;0.60;;;;;;;12.96;100.00;99492.88;5024009;28;20080;-94
2022/05/27 11:04:57;;;;;;;2.50;1.73;;;;;;;13.03;100.00;99462.78;5052720;28;20037;-94
2022/05/27 11:08:08;;;;;;;;;;;;;;;13.28;100.00;99483.72;5054558;28;20041;-95
2022/05/27 11:11:05;;;;;;;2.00;0.85;;;;;;;13.12;100.00;99461.56;5036731;28;19925;-93
2022/05/27 11:17:15;;;;;;;1.60;1.00;;;;;;;13.20;100.00;99431.44;5035196;28;20049;-93
2022/05/27 11:20:27;;;;;;;1.50;0.60;;;;;;;13.51;100.00;99424.88;5024231;28;20044;-93
2022/05/27 11:23:44;;;;;;;0.95;0.60;;;;;;;13.32;100.00;99430.97;5028294;28;20041;-93
2022/05/27 11:26:44;;;;;;;5.32;0.80;;;;;;;12.88;100.00;99408.25;5051498;28;20034;-94
2022/05/27 11:30:17;;;;;;;1.48;0.90;;;;;;;13.20;100.00;99428.81;5050758;28;20087;-93
2022/05/27 11:33:31;;;;;;;1.40;1.15;;;;;;;13.49;100.00;99426.75;5009960;28;20127;-93
2022/05/27 11:36:31;;;;;;;2.00;1.00;;;;;;;12.91;100.00;99408.97;5050152;28;20041;-93
2022/05/27 11:39:34;;;;;;;2.67;1.25;;;;;;;12.96;100.00;99414.03;5036563;28;20476;-93
2022/05/27 11:43:12;;;;;;;1.58;0.80;;;;;;;12.83;100.00;99408.41;5027863;28;20049;-92
2022/05/27 11:46:18;;;;;;;2.03;0.98;;;;;;;13.31;100.00;99397.66;4953775;28;20043;-93
2022/05/27 11:49:31;;;;;;;2.67;1.33;;;;;;;13.29;100.00;99393.38;5027086;28;20048;-93
2022/05/27 11:52:53;;;;;;;2.13;0.77;;;;;;;13.16;100.00;99406.19;5022640;28;20044;-93
2022/05/27 11:55:57;;;;;;;1.48;1.00;;;;;;;13.23;100.00;99402.38;5027298;28;20037;-92
2022/05/27 11:59:03;;;;;;;1.73;1.20;;;;;;;13.39;100.00;99412.25;5035958;28;20513;-92
2022/05/27 12:01:51;;;;;;;2.45;1.23;;;;;;;13.08;100.00;99398.59;5053299;28;20033;-91
2022/05/27 12:04:49;;;;;;;2.85;1.08;;;;;;;13.04;100.00;99406.69;5039969;28;20037;-92
2022/05/27 12:07:41;;;;;;;1.75;0.95;;;;;;;13.05;100.00;99406.63;5040072;28;20044;-92
2022/05/27 12:10:50;;;;;;;2.28;1.48;;;;;;;13.02;100.00;99396.22;5049064;28;20041;-92
2022/05/27 12:14:06;;;;;;;1.77;1.20;;;;;;;13.01;100.00;99418.19;5040466;28;20048;-91
2022/05/27 12:16:52;;;;;;;1.50;1.20;;;;;;;13.34;100.00;99375.63;5035247;28;20060;-91
2022/05/27 12:19:43;;;;;;;2.38;1.83;;;;;;;13.44;100.00;99424.28;5036456;28;20110;-92
2022/05/27 12:22:32;;;;;;;4.18;2.30;;;;;;;13.71;100.00;99398.56;5024074;28;20040;-92
2022/05/27 12:25:26;;;;;;;2.70;1.73;;;;;;;13.91;100.00;99416.13;5052729;28;20784;-92
2022/05/27 12:28:13;;;;;;;2.50;1.80;;;;;;;13.42;100.00;99409.50;5038813;28;20076;-91
2022/05/27 12:31:04;;;;;;;1.65;1.55;;;;;;;13.21;100.00;99422.59;5053138;28;20037;-92
2022/05/27 12:33:48;;;;;;;2.03;1.80;;;;;;;12.97;100.00;99398.22;5024325;28;20111;-91
2022/05/27 12:36:33;;;;;;;1.73;1.40;;;;;;;13.29;100.00;99390.75;5039253;28;20041;-92
2022/05/27 12:39:26;;;;;;;3.15;1.67;;;;;;;13.31;100.00;99402.91;5038626;28;20037;-91
2022/05/27 12:42:28;;;;;;;2.25;1.25;;;;;;;13.26;100.00;99397.03;5039326;28;20045;-91
2022/05/27 12:45:45;;;;;;;3.17;1.65;;;;;;;13.54;100.00;99382.66;5024802;28;20041;-92
2022/05/27 12:48:39;;;;;;;2.35;1.10;;;;;;;13.64;100.00;99391.84;5031853;28;20056;-91
2022/05/27 12:51:27;;;;;;;2.63;1.90;;;;;;;13.68;100.00;99390.81;5040484;28;20490;-91
2022/05/27 12:54:54;;;;;;;1.80;1.33;;;;;;;13.41;100.00;99397.28;5040719;28;20056;-92
2022/05/27 13:00:59;;;;;;;3.58;0.80;;;;;;;13.55;100.00;99387.88;5045634;28;20130;-91
2022/05/27 13:03:48;;;;;;;1.88;1.00;;;;;;;13.05;100.00;99397.88;5028452;28;20892;-90
2022/05/27 13:06:37;;;;;;;2.42;0.90;;;;;;;13.02;100.00;99377.81;5024670;28;20384;-91
2022/05/27 13:09:38;;;;;;;2.50;0.93;;;;;;;13.30;100.00;99401.22;5050536;28;20051;-91
2022/05/27 13:12:47;;;;;;;2.25;0.95;;;;;;;13.25;100.00;99404.97;5028575;28;20036;-90
2022/05/27 13:15:43;;;;;;;4.07;1.30;;;;;;;13.26;100.00;99399.66;5052806;28;20044;-91
2022/05/27 13:18:30;;;;;;;2.80;1.55;;;;;;;13.42;100.00;99386.69;5052687;28;20091;-91
2022/05/27 13:21:27;;;;;;;2.40;1.00;;;;;;;13.42;100.00;99383.19;5028225;28;20045;-90
2022/05/27 13:24:11;;;;;;;1.90;1.23;;;;;;;13.23;100.00;99370.81;5028445;28;20525;-91
2022/05/27 13:27:21;;;;;;;4.28;1.38;;;;;;;13.28;100.00;99357.50;5041651;28;20047;-91
2022/05/27 13:30:10;;;;;;;2.28;1.25;;;;;;;13.33;100.00;99355.53;5036303;28;20049;-92
2022/05/27 13:33:05;;;;;;;2.13;1.10;;;;;;;13.69;100.00;99373.25;5037252;28;20099;-92
2022/05/27 13:35:52;;;;;;;1.55;1.45;;;;;;;13.82;100.00;99350.72;5005792;28;20102;-92
2022/05/27 13:38:43;;;;;;;5.93;2.00;;;;;;;13.98;100.00;99361.41;5052442;28;20044;-91
2022/05/27 13:41:55;;;;;;;2.75;1.23;;;;;;;13.69;100.00;99328.50;5038997;28;20048;-91
2022/05/27 13:44:41;;;;;;;2.35;1.48;;;;;;;14.38;100.00;99323.50;5024560;28;20067;-91
2022/05/27 13:47:28;;;;;;;3.40;1.40;;;;;;;13.87;100.00;99314.50;5052069;28;20037;-91
2022/05/27 13:50:30;;;;;;;2.42;1.00;;;;;;;14.03;100.00;99330.44;5021535;28;20461;-91
2022/05/27 13:53:21;;;;;;;4.57;1.50;;;;;;;13.65;100.00;99330.44;5051909;28;20095;-90
2022/05/27 13:56:33;;;;;;;4.30;2.50;;;;;;;13.86;100.00;99349.66;5025483;28;20037;-92
2022/05/27 13:59:48;;;;;;;2.38;1.75;;;;;;;13.84;100.00;99356.75;5009001;28;20049;-91